sensor_id;sensor_type;location;lat;lon;timestamp;P1;durP1;ratioP1;P2;durP2;ratioP2
5219;SDS011;2629;50.768;7.308;2022-08-19T00:02:11;20.83;;;16.37;;
5219;SDS011;2629;50.768;7.308;2022-08-19T00:04:39;20.10;;;16.33;;
5219;SDS011;2629;50.768;7.308;2022-08-19T00:07:08;19.02;;;16.35;;
5219;SDS011;2629;50.768;7.308;2022-08-19T00:09:37;20.70;;;16.10;;
5219;SDS011;2629;50.768;7.308;2022-08-19T00:12:05;22.02;;;16.23;;
5219;SDS011;2629;50.768;7.308;2022-08-19T00:14:35;23.15;;;16.73;;
5219;SDS011;2629;50.768;7.308;2022-08-19T00:17:05;22.58;;;17.33;;
5219;SDS011;2629;50.768;7.308;2022-08-19T00:19:37;22.65;;;18.17;;
5219;SDS011;2629;50.768;7.308;2022-08-19T00:22:06;21.25;;;17.45;;
5219;SDS011;2629;50.768;7.308;2022-08-19T00:24:35;23.25;;;17.83;;
5219;SDS011;2629;50.768;7.308;2022-08-19T00:27:04;21.52;;;16.90;;
5219;SDS011;2629;50.768;7.308;2022-08-19T00:29:52;23.73;;;18.50;;
5219;SDS011;2629;50.768;7.308;2022-08-19T00:32:21;27.40;;;21.40;;
5219;SDS011;2629;50.768;7.308;2022-08-19T00:34:54;26.20;;;19.70;;
5219;SDS011;2629;50.768;7.308;2022-08-19T00:37:23;25.27;;;19.02;;
5219;SDS011;2629;50.768;7.308;2022-08-19T00:39:53;25.17;;;19.33;;
5219;SDS011;2629;50.768;7.308;2022-08-19T00:42:22;24.75;;;19.38;;
5219;SDS011;2629;50.768;7.308;2022-08-19T00:44:55;23.05;;;17.80;;
5219;SDS011;2629;50.768;7.308;2022-08-19T00:47:28;24.58;;;18.40;;
5219;SDS011;2629;50.768;7.308;2022-08-19T00:49:59;22.23;;;18.05;;
5219;SDS011;2629;50.768;7.308;2022-08-19T00:52:29;20.75;;;16.77;;
5219;SDS011;2629;50.768;7.308;2022-08-19T00:55:00;23.30;;;18.42;;
5219;SDS011;2629;50.768;7.308;2022-08-19T00:57:30;23.10;;;18.10;;
5219;SDS011;2629;50.768;7.308;2022-08-19T01:00:01;24.35;;;18.17;;
5219;SDS011;2629;50.768;7.308;2022-08-19T01:02:30;23.30;;;18.83;;
5219;SDS011;2629;50.768;7.308;2022-08-19T01:05:03;23.43;;;18.90;;
5219;SDS011;2629;50.768;7.308;2022-08-19T01:07:32;24.15;;;19.13;;
5219;SDS011;2629;50.768;7.308;2022-08-19T01:10:04;22.48;;;18.15;;
5219;SDS011;2629;50.768;7.308;2022-08-19T01:12:34;21.38;;;16.73;;
5219;SDS011;2629;50.768;7.308;2022-08-19T01:15:03;23.80;;;18.08;;
5219;SDS011;2629;50.768;7.308;2022-08-19T01:17:32;23.98;;;18.67;;
5219;SDS011;2629;50.768;7.308;2022-08-19T01:20:03;24.75;;;18.88;;
5219;SDS011;2629;50.768;7.308;2022-08-19T01:22:34;23.15;;;18.27;;
5219;SDS011;2629;50.768;7.308;2022-08-19T01:25:04;24.40;;;19.92;;
5219;SDS011;2629;50.768;7.308;2022-08-19T01:27:41;26.10;;;18.70;;
5219;SDS011;2629;50.768;7.308;2022-08-19T01:30:12;23.27;;;17.30;;
5219;SDS011;2629;50.768;7.308;2022-08-19T01:32:41;22.75;;;18.10;;
5219;SDS011;2629;50.768;7.308;2022-08-19T01:35:11;22.25;;;18.17;;
5219;SDS011;2629;50.768;7.308;2022-08-19T01:37:49;23.80;;;17.90;;
5219;SDS011;2629;50.768;7.308;2022-08-19T01:40:21;21.10;;;16.80;;
5219;SDS011;2629;50.768;7.308;2022-08-19T01:42:50;21.10;;;17.20;;
5219;SDS011;2629;50.768;7.308;2022-08-19T01:45:20;22.60;;;17.58;;
5219;SDS011;2629;50.768;7.308;2022-08-19T01:47:49;22.65;;;18.58;;
5219;SDS011;2629;50.768;7.308;2022-08-19T01:50:28;21.05;;;17.40;;
5219;SDS011;2629;50.768;7.308;2022-08-19T01:52:58;25.42;;;18.75;;
5219;SDS011;2629;50.768;7.308;2022-08-19T01:55:33;23.30;;;17.90;;
5219;SDS011;2629;50.768;7.308;2022-08-19T01:58:08;21.80;;;17.10;;
5219;SDS011;2629;50.768;7.308;2022-08-19T02:00:38;21.73;;;17.57;;
5219;SDS011;2629;50.768;7.308;2022-08-19T02:03:07;20.55;;;16.65;;
5219;SDS011;2629;50.768;7.308;2022-08-19T02:05:38;23.40;;;17.60;;
5219;SDS011;2629;50.768;7.308;2022-08-19T02:08:08;22.55;;;17.75;;
5219;SDS011;2629;50.768;7.308;2022-08-19T02:10:38;22.88;;;17.52;;
5219;SDS011;2629;50.768;7.308;2022-08-19T02:13:09;23.50;;;17.75;;
5219;SDS011;2629;50.768;7.308;2022-08-19T02:15:37;23.53;;;19.40;;
5219;SDS011;2629;50.768;7.308;2022-08-19T02:18:06;26.17;;;20.00;;
5219;SDS011;2629;50.768;7.308;2022-08-19T02:20:36;24.58;;;19.83;;
5219;SDS011;2629;50.768;7.308;2022-08-19T02:23:05;26.75;;;19.25;;
5219;SDS011;2629;50.768;7.308;2022-08-19T02:25:43;24.60;;;19.45;;
5219;SDS011;2629;50.768;7.308;2022-08-19T02:28:12;25.50;;;19.35;;
5219;SDS011;2629;50.768;7.308;2022-08-19T02:30:45;23.02;;;18.90;;
5219;SDS011;2629;50.768;7.308;2022-08-19T02:33:14;24.98;;;19.15;;
5219;SDS011;2629;50.768;7.308;2022-08-19T02:35:45;25.05;;;19.20;;
5219;SDS011;2629;50.768;7.308;2022-08-19T02:38:15;23.35;;;18.67;;
5219;SDS011;2629;50.768;7.308;2022-08-19T02:40:55;23.67;;;19.50;;
5219;SDS011;2629;50.768;7.308;2022-08-19T02:43:24;23.95;;;17.90;;
5219;SDS011;2629;50.768;7.308;2022-08-19T02:45:54;24.27;;;19.33;;
5219;SDS011;2629;50.768;7.308;2022-08-19T02:48:23;24.48;;;18.75;;
5219;SDS011;2629;50.768;7.308;2022-08-19T02:50:52;25.70;;;19.50;;
5219;SDS011;2629;50.768;7.308;2022-08-19T02:53:24;24.05;;;18.38;;
5219;SDS011;2629;50.768;7.308;2022-08-19T02:55:54;22.58;;;18.17;;
5219;SDS011;2629;50.768;7.308;2022-08-19T02:58:23;25.15;;;18.65;;
5219;SDS011;2629;50.768;7.308;2022-08-19T03:00:54;24.63;;;18.65;;
5219;SDS011;2629;50.768;7.308;2022-08-19T03:03:23;25.85;;;20.25;;
5219;SDS011;2629;50.768;7.308;2022-08-19T03:06:01;27.13;;;20.30;;
5219;SDS011;2629;50.768;7.308;2022-08-19T03:08:30;23.90;;;18.23;;
5219;SDS011;2629;50.768;7.308;2022-08-19T03:11:00;23.25;;;18.40;;
5219;SDS011;2629;50.768;7.308;2022-08-19T03:13:29;23.58;;;18.92;;
5219;SDS011;2629;50.768;7.308;2022-08-19T03:15:58;22.90;;;17.80;;
5219;SDS011;2629;50.768;7.308;2022-08-19T03:18:26;24.98;;;18.67;;
5219;SDS011;2629;50.768;7.308;2022-08-19T03:20:56;24.48;;;18.50;;
5219;SDS011;2629;50.768;7.308;2022-08-19T03:23:25;24.85;;;19.55;;
5219;SDS011;2629;50.768;7.308;2022-08-19T03:25:53;26.00;;;19.40;;
5219;SDS011;2629;50.768;7.308;2022-08-19T03:28:43;24.27;;;18.73;;
5219;SDS011;2629;50.768;7.308;2022-08-19T03:31:18;20.43;;;16.80;;
5219;SDS011;2629;50.768;7.308;2022-08-19T03:34:08;22.58;;;16.27;;
5219;SDS011;2629;50.768;7.308;2022-08-19T03:36:38;21.98;;;17.15;;
5219;SDS011;2629;50.768;7.308;2022-08-19T03:39:07;20.95;;;16.58;;
5219;SDS011;2629;50.768;7.308;2022-08-19T03:41:36;24.90;;;17.50;;
5219;SDS011;2629;50.768;7.308;2022-08-19T03:44:13;21.70;;;16.63;;
5219;SDS011;2629;50.768;7.308;2022-08-19T03:46:44;21.13;;;16.20;;
5219;SDS011;2629;50.768;7.308;2022-08-19T03:49:14;20.55;;;16.50;;
5219;SDS011;2629;50.768;7.308;2022-08-19T03:51:44;22.48;;;17.20;;
5219;SDS011;2629;50.768;7.308;2022-08-19T03:54:14;23.57;;;18.47;;
5219;SDS011;2629;50.768;7.308;2022-08-19T03:56:43;22.73;;;18.27;;
5219;SDS011;2629;50.768;7.308;2022-08-19T03:59:14;23.73;;;17.85;;
5219;SDS011;2629;50.768;7.308;2022-08-19T04:01:43;21.38;;;16.85;;
5219;SDS011;2629;50.768;7.308;2022-08-19T04:04:12;23.83;;;17.95;;
5219;SDS011;2629;50.768;7.308;2022-08-19T04:06:41;22.67;;;17.20;;
5219;SDS011;2629;50.768;7.308;2022-08-19T04:09:13;23.53;;;17.77;;
5219;SDS011;2629;50.768;7.308;2022-08-19T04:11:44;25.58;;;18.42;;
5219;SDS011;2629;50.768;7.308;2022-08-19T04:14:15;25.60;;;20.13;;
5219;SDS011;2629;50.768;7.308;2022-08-19T04:16:45;22.98;;;18.42;;
5219;SDS011;2629;50.768;7.308;2022-08-19T04:19:15;25.25;;;19.85;;
5219;SDS011;2629;50.768;7.308;2022-08-19T04:21:44;24.42;;;19.35;;
5219;SDS011;2629;50.768;7.308;2022-08-19T04:24:13;25.85;;;20.70;;
5219;SDS011;2629;50.768;7.308;2022-08-19T04:26:42;23.10;;;19.17;;
5219;SDS011;2629;50.768;7.308;2022-08-19T04:29:12;26.92;;;18.30;;
5219;SDS011;2629;50.768;7.308;2022-08-19T04:31:43;21.23;;;18.05;;
5219;SDS011;2629;50.768;7.308;2022-08-19T04:34:13;20.88;;;17.00;;
5219;SDS011;2629;50.768;7.308;2022-08-19T04:36:42;21.63;;;17.20;;
5219;SDS011;2629;50.768;7.308;2022-08-19T04:39:12;22.10;;;17.02;;
5219;SDS011;2629;50.768;7.308;2022-08-19T04:41:41;22.05;;;17.50;;
5219;SDS011;2629;50.768;7.308;2022-08-19T04:44:29;20.50;;;16.95;;
5219;SDS011;2629;50.768;7.308;2022-08-19T04:47:02;20.88;;;16.95;;
5219;SDS011;2629;50.768;7.308;2022-08-19T04:49:37;22.52;;;18.25;;
5219;SDS011;2629;50.768;7.308;2022-08-19T04:52:06;21.85;;;18.52;;
5219;SDS011;2629;50.768;7.308;2022-08-19T04:54:35;23.90;;;19.00;;
5219;SDS011;2629;50.768;7.308;2022-08-19T04:57:06;22.00;;;18.13;;
5219;SDS011;2629;50.768;7.308;2022-08-19T04:59:36;21.45;;;17.23;;
5219;SDS011;2629;50.768;7.308;2022-08-19T05:02:06;20.10;;;16.58;;
5219;SDS011;2629;50.768;7.308;2022-08-19T05:04:36;21.00;;;17.00;;
5219;SDS011;2629;50.768;7.308;2022-08-19T05:07:06;20.87;;;17.50;;
5219;SDS011;2629;50.768;7.308;2022-08-19T05:09:36;23.40;;;18.55;;
5219;SDS011;2629;50.768;7.308;2022-08-19T05:12:24;22.42;;;17.42;;
5219;SDS011;2629;50.768;7.308;2022-08-19T05:14:55;22.95;;;17.85;;
5219;SDS011;2629;50.768;7.308;2022-08-19T05:17:26;21.33;;;16.75;;
5219;SDS011;2629;50.768;7.308;2022-08-19T05:20:03;24.08;;;18.45;;
5219;SDS011;2629;50.768;7.308;2022-08-19T05:22:50;21.70;;;17.73;;
5219;SDS011;2629;50.768;7.308;2022-08-19T05:25:20;23.80;;;18.40;;
5219;SDS011;2629;50.768;7.308;2022-08-19T05:27:52;23.33;;;18.30;;
5219;SDS011;2629;50.768;7.308;2022-08-19T05:30:20;22.38;;;19.58;;
5219;SDS011;2629;50.768;7.308;2022-08-19T05:33:09;26.67;;;21.45;;
5219;SDS011;2629;50.768;7.308;2022-08-19T05:35:39;26.10;;;21.75;;
5219;SDS011;2629;50.768;7.308;2022-08-19T05:38:08;28.85;;;22.45;;
5219;SDS011;2629;50.768;7.308;2022-08-19T05:40:37;30.10;;;22.83;;
5219;SDS011;2629;50.768;7.308;2022-08-19T05:43:07;27.97;;;21.90;;
5219;SDS011;2629;50.768;7.308;2022-08-19T05:45:38;27.48;;;21.90;;
5219;SDS011;2629;50.768;7.308;2022-08-19T05:48:09;25.63;;;20.80;;
5219;SDS011;2629;50.768;7.308;2022-08-19T05:50:38;26.83;;;21.30;;
5219;SDS011;2629;50.768;7.308;2022-08-19T05:53:07;21.17;;;18.23;;
5219;SDS011;2629;50.768;7.308;2022-08-19T05:55:36;22.27;;;17.13;;
5219;SDS011;2629;50.768;7.308;2022-08-19T05:58:06;20.73;;;17.20;;
5219;SDS011;2629;50.768;7.308;2022-08-19T06:00:35;28.55;;;20.73;;
5219;SDS011;2629;50.768;7.308;2022-08-19T06:03:04;27.05;;;22.10;;
5219;SDS011;2629;50.768;7.308;2022-08-19T06:05:41;28.70;;;23.17;;
5219;SDS011;2629;50.768;7.308;2022-08-19T06:08:18;30.15;;;24.10;;
5219;SDS011;2629;50.768;7.308;2022-08-19T06:11:14;27.00;;;22.20;;
5219;SDS011;2629;50.768;7.308;2022-08-19T06:13:43;28.83;;;22.40;;
5219;SDS011;2629;50.768;7.308;2022-08-19T06:16:13;26.15;;;21.08;;
5219;SDS011;2629;50.768;7.308;2022-08-19T06:18:49;24.30;;;19.53;;
5219;SDS011;2629;50.768;7.308;2022-08-19T06:21:20;26.20;;;21.40;;
5219;SDS011;2629;50.768;7.308;2022-08-19T06:23:50;26.13;;;21.08;;
5219;SDS011;2629;50.768;7.308;2022-08-19T06:26:19;36.38;;;21.15;;
5219;SDS011;2629;50.768;7.308;2022-08-19T06:28:48;28.90;;;22.95;;
5219;SDS011;2629;50.768;7.308;2022-08-19T06:31:18;25.75;;;21.33;;
5219;SDS011;2629;50.768;7.308;2022-08-19T06:33:48;26.30;;;21.58;;
5219;SDS011;2629;50.768;7.308;2022-08-19T06:36:18;23.90;;;19.35;;
5219;SDS011;2629;50.768;7.308;2022-08-19T06:38:52;22.20;;;19.10;;
5219;SDS011;2629;50.768;7.308;2022-08-19T06:41:23;23.15;;;19.17;;
5219;SDS011;2629;50.768;7.308;2022-08-19T06:43:53;23.70;;;20.27;;
5219;SDS011;2629;50.768;7.308;2022-08-19T06:46:22;25.00;;;19.93;;
5219;SDS011;2629;50.768;7.308;2022-08-19T06:48:51;26.65;;;22.25;;
5219;SDS011;2629;50.768;7.308;2022-08-19T06:51:21;27.58;;;23.73;;
5219;SDS011;2629;50.768;7.308;2022-08-19T06:53:53;28.52;;;22.80;;
5219;SDS011;2629;50.768;7.308;2022-08-19T06:56:23;31.98;;;24.73;;
5219;SDS011;2629;50.768;7.308;2022-08-19T06:58:57;29.70;;;23.20;;
5219;SDS011;2629;50.768;7.308;2022-08-19T07:01:26;29.65;;;24.10;;
5219;SDS011;2629;50.768;7.308;2022-08-19T07:03:55;34.42;;;25.25;;
5219;SDS011;2629;50.768;7.308;2022-08-19T07:06:24;34.97;;;25.88;;
5219;SDS011;2629;50.768;7.308;2022-08-19T07:09:12;30.23;;;24.90;;
5219;SDS011;2629;50.768;7.308;2022-08-19T07:11:45;34.23;;;26.10;;
5219;SDS011;2629;50.768;7.308;2022-08-19T07:14:15;36.72;;;28.50;;
5219;SDS011;2629;50.768;7.308;2022-08-19T07:16:47;40.70;;;27.50;;
5219;SDS011;2629;50.768;7.308;2022-08-19T07:19:18;73.40;;;32.37;;
5219;SDS011;2629;50.768;7.308;2022-08-19T07:21:48;49.47;;;29.60;;
5219;SDS011;2629;50.768;7.308;2022-08-19T07:24:19;44.23;;;27.50;;
5219;SDS011;2629;50.768;7.308;2022-08-19T07:26:50;38.40;;;26.87;;
5219;SDS011;2629;50.768;7.308;2022-08-19T07:29:20;38.90;;;27.47;;
5219;SDS011;2629;50.768;7.308;2022-08-19T07:31:54;37.23;;;26.17;;
5219;SDS011;2629;50.768;7.308;2022-08-19T07:34:26;37.93;;;26.00;;
5219;SDS011;2629;50.768;7.308;2022-08-19T07:36:55;37.33;;;25.20;;
5219;SDS011;2629;50.768;7.308;2022-08-19T07:39:30;99.20;;;28.50;;
5219;SDS011;2629;50.768;7.308;2022-08-19T07:42:00;41.37;;;27.13;;
5219;SDS011;2629;50.768;7.308;2022-08-19T07:44:30;56.30;;;24.57;;
5219;SDS011;2629;50.768;7.308;2022-08-19T07:47:00;34.17;;;24.30;;
5219;SDS011;2629;50.768;7.308;2022-08-19T07:49:30;37.33;;;25.33;;
5219;SDS011;2629;50.768;7.308;2022-08-19T07:52:01;36.93;;;24.73;;
5219;SDS011;2629;50.768;7.308;2022-08-19T07:54:33;34.83;;;23.17;;
5219;SDS011;2629;50.768;7.308;2022-08-19T07:57:02;33.40;;;23.23;;
5219;SDS011;2629;50.768;7.308;2022-08-19T07:59:31;31.47;;;22.80;;
5219;SDS011;2629;50.768;7.308;2022-08-19T08:02:00;38.17;;;25.37;;
5219;SDS011;2629;50.768;7.308;2022-08-19T08:04:29;36.63;;;22.70;;
5219;SDS011;2629;50.768;7.308;2022-08-19T08:07:15;33.53;;;23.70;;
5219;SDS011;2629;50.768;7.308;2022-08-19T08:10:05;34.60;;;25.80;;
5219;SDS011;2629;50.768;7.308;2022-08-19T08:12:46;32.57;;;23.10;;
5219;SDS011;2629;50.768;7.308;2022-08-19T08:15:35;37.27;;;22.50;;
5219;SDS011;2629;50.768;7.308;2022-08-19T08:18:09;37.90;;;23.63;;
5219;SDS011;2629;50.768;7.308;2022-08-19T08:20:38;31.83;;;23.30;;
5219;SDS011;2629;50.768;7.308;2022-08-19T08:23:07;34.70;;;23.33;;
5219;SDS011;2629;50.768;7.308;2022-08-19T08:25:54;33.33;;;25.27;;
5219;SDS011;2629;50.768;7.308;2022-08-19T08:28:23;39.67;;;24.30;;
5219;SDS011;2629;50.768;7.308;2022-08-19T08:30:55;28.80;;;21.40;;
5219;SDS011;2629;50.768;7.308;2022-08-19T08:33:25;35.17;;;24.60;;
5219;SDS011;2629;50.768;7.308;2022-08-19T08:36:00;33.80;;;24.10;;
5219;SDS011;2629;50.768;7.308;2022-08-19T08:38:30;33.93;;;22.10;;
5219;SDS011;2629;50.768;7.308;2022-08-19T08:41:09;28.47;;;20.60;;
5219;SDS011;2629;50.768;7.308;2022-08-19T08:43:40;31.93;;;24.33;;
5219;SDS011;2629;50.768;7.308;2022-08-19T08:46:11;27.57;;;22.10;;
5219;SDS011;2629;50.768;7.308;2022-08-19T08:48:57;33.30;;;21.70;;
5219;SDS011;2629;50.768;7.308;2022-08-19T08:51:27;33.63;;;22.80;;
5219;SDS011;2629;50.768;7.308;2022-08-19T08:54:01;29.20;;;20.50;;
5219;SDS011;2629;50.768;7.308;2022-08-19T08:56:32;29.40;;;20.67;;
5219;SDS011;2629;50.768;7.308;2022-08-19T08:59:01;26.23;;;19.77;;
5219;SDS011;2629;50.768;7.308;2022-08-19T09:01:33;26.10;;;18.83;;
5219;SDS011;2629;50.768;7.308;2022-08-19T09:04:02;23.80;;;18.70;;
5219;SDS011;2629;50.768;7.308;2022-08-19T09:06:35;27.17;;;17.90;;
5219;SDS011;2629;50.768;7.308;2022-08-19T09:09:10;25.57;;;18.83;;
5219;SDS011;2629;50.768;7.308;2022-08-19T09:11:47;24.13;;;16.80;;
5219;SDS011;2629;50.768;7.308;2022-08-19T09:14:20;28.47;;;17.33;;
5219;SDS011;2629;50.768;7.308;2022-08-19T09:17:12;25.53;;;15.13;;
5219;SDS011;2629;50.768;7.308;2022-08-19T09:19:51;17.50;;;15.60;;
5219;SDS011;2629;50.768;7.308;2022-08-19T09:22:21;16.37;;;13.80;;
5219;SDS011;2629;50.768;7.308;2022-08-19T09:24:53;19.57;;;12.43;;
5219;SDS011;2629;50.768;7.308;2022-08-19T09:27:24;18.10;;;13.40;;
5219;SDS011;2629;50.768;7.308;2022-08-19T09:30:10;15.40;;;12.40;;
5219;SDS011;2629;50.768;7.308;2022-08-19T09:32:39;13.43;;;11.37;;
5219;SDS011;2629;50.768;7.308;2022-08-19T09:35:09;15.80;;;11.03;;
5219;SDS011;2629;50.768;7.308;2022-08-19T09:37:39;20.53;;;13.03;;
5219;SDS011;2629;50.768;7.308;2022-08-19T09:40:09;15.97;;;12.53;;
5219;SDS011;2629;50.768;7.308;2022-08-19T09:42:39;17.57;;;11.70;;
5219;SDS011;2629;50.768;7.308;2022-08-19T09:45:16;13.93;;;11.30;;
5219;SDS011;2629;50.768;7.308;2022-08-19T09:47:48;15.93;;;11.00;;
5219;SDS011;2629;50.768;7.308;2022-08-19T09:50:20;12.93;;;9.40;;
5219;SDS011;2629;50.768;7.308;2022-08-19T09:52:52;13.37;;;9.90;;
5219;SDS011;2629;50.768;7.308;2022-08-19T09:55:23;13.67;;;10.57;;
5219;SDS011;2629;50.768;7.308;2022-08-19T09:58:02;11.43;;;9.40;;
5219;SDS011;2629;50.768;7.308;2022-08-19T10:00:31;11.80;;;8.87;;
5219;SDS011;2629;50.768;7.308;2022-08-19T10:03:00;13.03;;;9.83;;
5219;SDS011;2629;50.768;7.308;2022-08-19T10:05:32;12.00;;;9.67;;
5219;SDS011;2629;50.768;7.308;2022-08-19T10:08:21;13.37;;;9.90;;
5219;SDS011;2629;50.768;7.308;2022-08-19T10:10:53;13.30;;;9.60;;
5219;SDS011;2629;50.768;7.308;2022-08-19T10:13:26;19.57;;;11.27;;
5219;SDS011;2629;50.768;7.308;2022-08-19T10:15:56;17.80;;;12.47;;
5219;SDS011;2629;50.768;7.308;2022-08-19T10:18:25;16.47;;;11.70;;
5219;SDS011;2629;50.768;7.308;2022-08-19T10:21:01;23.13;;;14.23;;
5219;SDS011;2629;50.768;7.308;2022-08-19T10:23:31;20.60;;;12.60;;
5219;SDS011;2629;50.768;7.308;2022-08-19T10:26:01;20.73;;;16.23;;
5219;SDS011;2629;50.768;7.308;2022-08-19T10:28:37;19.03;;;13.90;;
5219;SDS011;2629;50.768;7.308;2022-08-19T10:31:10;18.33;;;13.40;;
5219;SDS011;2629;50.768;7.308;2022-08-19T10:33:39;17.40;;;13.70;;
5219;SDS011;2629;50.768;7.308;2022-08-19T10:36:20;17.00;;;12.67;;
5219;SDS011;2629;50.768;7.308;2022-08-19T10:38:51;21.90;;;14.97;;
5219;SDS011;2629;50.768;7.308;2022-08-19T10:41:22;18.57;;;10.87;;
5219;SDS011;2629;50.768;7.308;2022-08-19T10:43:53;20.33;;;13.10;;
5219;SDS011;2629;50.768;7.308;2022-08-19T10:46:30;17.80;;;13.33;;
5219;SDS011;2629;50.768;7.308;2022-08-19T10:48:59;17.63;;;14.30;;
5219;SDS011;2629;50.768;7.308;2022-08-19T10:51:28;19.70;;;14.80;;
5219;SDS011;2629;50.768;7.308;2022-08-19T10:54:15;22.80;;;13.13;;
5219;SDS011;2629;50.768;7.308;2022-08-19T10:56:57;19.80;;;13.97;;
5219;SDS011;2629;50.768;7.308;2022-08-19T10:59:27;17.60;;;15.60;;
5219;SDS011;2629;50.768;7.308;2022-08-19T11:02:02;14.53;;;11.50;;
5219;SDS011;2629;50.768;7.308;2022-08-19T11:04:32;16.90;;;13.40;;
5219;SDS011;2629;50.768;7.308;2022-08-19T11:07:01;18.20;;;14.90;;
5219;SDS011;2629;50.768;7.308;2022-08-19T11:09:31;24.37;;;17.00;;
5219;SDS011;2629;50.768;7.308;2022-08-19T11:12:00;27.63;;;18.97;;
5219;SDS011;2629;50.768;7.308;2022-08-19T11:14:32;26.33;;;16.17;;
5219;SDS011;2629;50.768;7.308;2022-08-19T11:17:00;20.20;;;15.63;;
5219;SDS011;2629;50.768;7.308;2022-08-19T11:19:29;18.77;;;13.77;;
5219;SDS011;2629;50.768;7.308;2022-08-19T11:21:58;19.50;;;11.80;;
5219;SDS011;2629;50.768;7.308;2022-08-19T11:24:29;18.30;;;15.10;;
5219;SDS011;2629;50.768;7.308;2022-08-19T11:27:03;19.50;;;15.77;;
5219;SDS011;2629;50.768;7.308;2022-08-19T11:29:34;16.33;;;11.90;;
5219;SDS011;2629;50.768;7.308;2022-08-19T11:32:04;17.33;;;13.70;;
5219;SDS011;2629;50.768;7.308;2022-08-19T11:34:33;18.40;;;12.77;;
5219;SDS011;2629;50.768;7.308;2022-08-19T11:37:01;17.17;;;14.30;;
5219;SDS011;2629;50.768;7.308;2022-08-19T11:39:31;13.07;;;10.30;;
5219;SDS011;2629;50.768;7.308;2022-08-19T11:42:00;13.47;;;9.67;;
5219;SDS011;2629;50.768;7.308;2022-08-19T11:44:29;18.23;;;12.37;;
5219;SDS011;2629;50.768;7.308;2022-08-19T11:47:03;14.80;;;12.70;;
5219;SDS011;2629;50.768;7.308;2022-08-19T11:49:34;13.90;;;10.77;;
5219;SDS011;2629;50.768;7.308;2022-08-19T11:52:04;13.00;;;10.57;;
5219;SDS011;2629;50.768;7.308;2022-08-19T11:54:34;13.87;;;10.73;;
5219;SDS011;2629;50.768;7.308;2022-08-19T11:57:03;15.33;;;10.63;;
5219;SDS011;2629;50.768;7.308;2022-08-19T11:59:32;12.77;;;9.40;;
5219;SDS011;2629;50.768;7.308;2022-08-19T12:02:01;9.83;;;8.77;;
5219;SDS011;2629;50.768;7.308;2022-08-19T12:04:31;10.23;;;9.17;;
5219;SDS011;2629;50.768;7.308;2022-08-19T12:07:00;11.00;;;8.67;;
5219;SDS011;2629;50.768;7.308;2022-08-19T12:09:33;12.10;;;9.20;;
5219;SDS011;2629;50.768;7.308;2022-08-19T12:12:07;11.83;;;9.30;;
5219;SDS011;2629;50.768;7.308;2022-08-19T12:14:39;16.10;;;11.73;;
5219;SDS011;2629;50.768;7.308;2022-08-19T12:17:07;12.67;;;10.40;;
5219;SDS011;2629;50.768;7.308;2022-08-19T12:19:40;9.83;;;7.60;;
5219;SDS011;2629;50.768;7.308;2022-08-19T12:22:09;14.50;;;11.40;;
5219;SDS011;2629;50.768;7.308;2022-08-19T12:24:40;11.63;;;9.70;;
5219;SDS011;2629;50.768;7.308;2022-08-19T12:27:09;12.37;;;9.90;;
5219;SDS011;2629;50.768;7.308;2022-08-19T12:29:45;9.30;;;8.10;;
5219;SDS011;2629;50.768;7.308;2022-08-19T12:32:15;11.20;;;9.37;;
5219;SDS011;2629;50.768;7.308;2022-08-19T12:34:45;10.80;;;8.70;;
5219;SDS011;2629;50.768;7.308;2022-08-19T12:37:15;9.83;;;7.80;;
5219;SDS011;2629;50.768;7.308;2022-08-19T12:39:43;9.60;;;8.60;;
5219;SDS011;2629;50.768;7.308;2022-08-19T12:42:13;9.00;;;8.10;;
5219;SDS011;2629;50.768;7.308;2022-08-19T12:44:42;13.80;;;9.10;;
5219;SDS011;2629;50.768;7.308;2022-08-19T12:47:12;12.10;;;8.57;;
5219;SDS011;2629;50.768;7.308;2022-08-19T12:49:41;11.60;;;10.00;;
5219;SDS011;2629;50.768;7.308;2022-08-19T12:52:21;10.87;;;9.17;;
5219;SDS011;2629;50.768;7.308;2022-08-19T12:54:51;13.50;;;8.47;;
5219;SDS011;2629;50.768;7.308;2022-08-19T12:57:21;11.00;;;8.73;;
5219;SDS011;2629;50.768;7.308;2022-08-19T12:59:59;10.40;;;7.90;;
5219;SDS011;2629;50.768;7.308;2022-08-19T13:02:31;9.73;;;8.47;;
5219;SDS011;2629;50.768;7.308;2022-08-19T13:05:05;8.80;;;7.53;;
5219;SDS011;2629;50.768;7.308;2022-08-19T13:07:37;9.40;;;8.20;;
5219;SDS011;2629;50.768;7.308;2022-08-19T13:10:07;7.70;;;6.90;;
5219;SDS011;2629;50.768;7.308;2022-08-19T13:12:37;9.03;;;7.87;;
5219;SDS011;2629;50.768;7.308;2022-08-19T13:15:08;9.63;;;6.70;;
5219;SDS011;2629;50.768;7.308;2022-08-19T13:17:38;10.50;;;7.20;;
5219;SDS011;2629;50.768;7.308;2022-08-19T13:20:09;8.40;;;6.80;;
5219;SDS011;2629;50.768;7.308;2022-08-19T13:22:40;7.10;;;5.97;;
5219;SDS011;2629;50.768;7.308;2022-08-19T13:25:09;7.07;;;6.37;;
5219;SDS011;2629;50.768;7.308;2022-08-19T13:27:39;8.53;;;7.63;;
5219;SDS011;2629;50.768;7.308;2022-08-19T13:30:09;7.93;;;7.13;;
5219;SDS011;2629;50.768;7.308;2022-08-19T13:32:56;9.00;;;7.23;;
5219;SDS011;2629;50.768;7.308;2022-08-19T13:35:43;8.40;;;6.97;;
5219;SDS011;2629;50.768;7.308;2022-08-19T13:38:14;8.23;;;6.73;;
5219;SDS011;2629;50.768;7.308;2022-08-19T13:40:43;7.77;;;6.93;;
5219;SDS011;2629;50.768;7.308;2022-08-19T13:43:14;7.20;;;6.50;;
5219;SDS011;2629;50.768;7.308;2022-08-19T13:45:49;9.80;;;7.03;;
5219;SDS011;2629;50.768;7.308;2022-08-19T13:48:19;9.05;;;7.05;;
5219;SDS011;2629;50.768;7.308;2022-08-19T13:50:50;9.70;;;6.67;;
5219;SDS011;2629;50.768;7.308;2022-08-19T13:53:20;7.70;;;6.10;;
5219;SDS011;2629;50.768;7.308;2022-08-19T13:55:49;10.45;;;7.22;;
5219;SDS011;2629;50.768;7.308;2022-08-19T16:16:26;8.03;;;5.93;;
5219;SDS011;2629;50.768;7.308;2022-08-19T16:19:00;6.83;;;5.40;;
5219;SDS011;2629;50.768;7.308;2022-08-19T16:21:29;7.80;;;4.70;;
5219;SDS011;2629;50.768;7.308;2022-08-19T16:23:59;7.50;;;4.50;;
5219;SDS011;2629;50.768;7.308;2022-08-19T16:26:28;6.17;;;3.80;;
5219;SDS011;2629;50.768;7.308;2022-08-19T16:28:57;6.17;;;3.80;;
5219;SDS011;2629;50.768;7.308;2022-08-19T16:31:27;6.20;;;4.00;;
5219;SDS011;2629;50.768;7.308;2022-08-19T16:33:56;4.90;;;3.43;;
5219;SDS011;2629;50.768;7.308;2022-08-19T16:36:25;5.60;;;3.30;;
5219;SDS011;2629;50.768;7.308;2022-08-19T16:38:57;7.50;;;3.20;;
5219;SDS011;2629;50.768;7.308;2022-08-19T16:41:26;5.50;;;3.30;;
5219;SDS011;2629;50.768;7.308;2022-08-19T16:43:55;5.40;;;3.77;;
5219;SDS011;2629;50.768;7.308;2022-08-19T16:46:23;5.47;;;3.20;;
5219;SDS011;2629;50.768;7.308;2022-08-19T16:48:55;5.33;;;3.20;;
5219;SDS011;2629;50.768;7.308;2022-08-19T16:51:24;4.63;;;2.93;;
5219;SDS011;2629;50.768;7.308;2022-08-19T16:53:54;5.57;;;3.37;;
5219;SDS011;2629;50.768;7.308;2022-08-19T16:56:23;9.70;;;3.57;;
5219;SDS011;2629;50.768;7.308;2022-08-19T16:58:52;4.70;;;3.60;;
5219;SDS011;2629;50.768;7.308;2022-08-19T17:01:21;4.90;;;3.60;;
5219;SDS011;2629;50.768;7.308;2022-08-19T17:03:50;3.90;;;2.87;;
5219;SDS011;2629;50.768;7.308;2022-08-19T17:06:21;4.77;;;3.20;;
5219;SDS011;2629;50.768;7.308;2022-08-19T17:08:52;6.90;;;2.83;;
5219;SDS011;2629;50.768;7.308;2022-08-19T17:11:21;6.83;;;3.47;;
5219;SDS011;2629;50.768;7.308;2022-08-19T17:13:50;4.50;;;3.30;;
5219;SDS011;2629;50.768;7.308;2022-08-19T17:16:20;5.10;;;3.30;;
5219;SDS011;2629;50.768;7.308;2022-08-19T17:18:50;3.50;;;2.80;;
5219;SDS011;2629;50.768;7.308;2022-08-19T17:21:21;9.53;;;3.50;;
5219;SDS011;2629;50.768;7.308;2022-08-19T17:23:51;5.13;;;2.67;;
5219;SDS011;2629;50.768;7.308;2022-08-19T17:26:20;4.90;;;3.30;;
5219;SDS011;2629;50.768;7.308;2022-08-19T17:28:52;4.10;;;3.10;;
5219;SDS011;2629;50.768;7.308;2022-08-19T17:31:23;3.70;;;2.97;;
5219;SDS011;2629;50.768;7.308;2022-08-19T17:33:52;4.50;;;3.33;;
5219;SDS011;2629;50.768;7.308;2022-08-19T17:36:24;3.80;;;3.00;;
5219;SDS011;2629;50.768;7.308;2022-08-19T17:38:54;4.60;;;2.80;;